sensor_id;sensor_type;location;lat;lon;timestamp;pressure;altitude;pressure_sealevel;temperature;humidity
30463;BME280;17256;43.618;25.336;2023-04-27T00:01:13;100299.13;;;9.39;100.00
30463;BME280;17256;43.618;25.336;2023-04-27T00:03:42;100219.78;;;8.97;100.00
30463;BME280;17256;43.618;25.336;2023-04-27T00:06:10;100241.53;;;9.05;100.00
30463;BME280;17256;43.618;25.336;2023-04-27T00:08:36;100131.50;;;8.24;100.00
30463;BME280;17256;43.618;25.336;2023-04-27T00:11:01;100249.69;;;8.98;100.00
30463;BME280;17256;43.618;25.336;2023-04-27T00:13:27;100416.88;;;10.03;100.00
30463;BME280;17256;43.618;25.336;2023-04-27T00:15:53;100345.22;;;9.57;100.00
30463;BME280;17256;43.618;25.336;2023-04-27T00:18:19;100419.03;;;10.08;100.00
30463;BME280;17256;43.618;25.336;2023-04-27T00:20:44;100335.13;;;9.57;100.00
30463;BME280;17256;43.618;25.336;2023-04-27T00:23:10;100271.25;;;9.08;100.00
30463;BME280;17256;43.618;25.336;2023-04-27T00:25:37;100227.91;;;8.90;100.00
30463;BME280;17256;43.618;25.336;2023-04-27T00:28:03;100232.22;;;8.99;100.00
30463;BME280;17256;43.618;25.336;2023-04-27T00:30:29;100266.31;;;9.18;100.00
30463;BME280;17256;43.618;25.336;2023-04-27T00:32:55;100208.50;;;8.85;100.00
30463;BME280;17256;43.618;25.336;2023-04-27T00:35:20;100238.59;;;9.06;100.00
30463;BME280;17256;43.618;25.336;2023-04-27T00:37:46;100305.72;;;9.45;100.00
30463;BME280;17256;43.618;25.336;2023-04-27T00:40:11;100299.41;;;9.44;100.00
30463;BME280;17256;43.618;25.336;2023-04-27T00:42:37;100341.56;;;9.71;100.00
30463;BME280;17256;43.618;25.336;2023-04-27T00:45:03;100270.22;;;9.09;100.00
30463;BME280;17256;43.618;25.336;2023-04-27T00:47:31;100185.50;;;8.58;100.00
30463;BME280;17256;43.618;25.336;2023-04-27T00:49:57;100245.50;;;9.02;100.00
30463;BME280;17256;43.618;25.336;2023-04-27T00:52:24;100252.78;;;9.16;100.00
30463;BME280;17256;43.618;25.336;2023-04-27T00:54:51;100466.28;;;10.31;100.00
30463;BME280;17256;43.618;25.336;2023-04-27T00:57:18;100385.44;;;9.71;100.00
30463;BME280;17256;43.618;25.336;2023-04-27T00:59:44;100278.63;;;9.07;100.00
30463;BME280;17256;43.618;25.336;2023-04-27T01:02:12;100225.31;;;8.82;100.00
30463;BME280;17256;43.618;25.336;2023-04-27T01:04:38;100282.69;;;8.90;100.00
30463;BME280;17256;43.618;25.336;2023-04-27T01:07:03;100304.34;;;9.06;100.00
30463;BME280;17256;43.618;25.336;2023-04-27T01:09:30;100242.78;;;8.59;100.00
30463;BME280;17256;43.618;25.336;2023-04-27T01:11:55;100200.44;;;8.34;100.00
30463;BME280;17256;43.618;25.336;2023-04-27T01:14:22;100345.63;;;9.05;100.00
30463;BME280;17256;43.618;25.336;2023-04-27T01:16:50;100220.16;;;8.15;100.00
30463;BME280;17256;43.618;25.336;2023-04-27T01:19:16;100292.91;;;8.60;100.00
30463;BME280;17256;43.618;25.336;2023-04-27T01:21:41;100407.59;;;9.27;100.00
30463;BME280;17256;43.618;25.336;2023-04-27T01:24:07;100486.53;;;9.81;100.00
30463;BME280;17256;43.618;25.336;2023-04-27T01:26:36;100383.72;;;9.21;100.00
30463;BME280;17256;43.618;25.336;2023-04-27T01:29:02;100296.75;;;8.66;100.00
30463;BME280;17256;43.618;25.336;2023-04-27T01:31:27;100333.66;;;8.91;100.00
30463;BME280;17256;43.618;25.336;2023-04-27T01:33:53;100345.88;;;8.88;100.00
30463;BME280;17256;43.618;25.336;2023-04-27T01:36:19;100304.25;;;8.57;100.00
30463;BME280;17256;43.618;25.336;2023-04-27T01:38:45;100381.75;;;9.15;100.00
30463;BME280;17256;43.618;25.336;2023-04-27T01:41:11;100263.16;;;8.36;100.00
30463;BME280;17256;43.618;25.336;2023-04-27T01:43:37;100327.22;;;8.77;100.00
30463;BME280;17256;43.618;25.336;2023-04-27T01:46:12;100300.78;;;8.48;100.00
30463;BME280;17256;43.618;25.336;2023-04-27T01:48:39;100327.69;;;8.81;100.00
30463;BME280;17256;43.618;25.336;2023-04-27T01:51:05;100267.59;;;8.37;100.00
30463;BME280;17256;43.618;25.336;2023-04-27T01:53:31;100357.28;;;8.92;100.00
30463;BME280;17256;43.618;25.336;2023-04-27T01:55:57;100279.50;;;8.44;100.00
30463;BME280;17256;43.618;25.336;2023-04-27T01:58:26;100327.38;;;8.54;100.00
30463;BME280;17256;43.618;25.336;2023-04-27T02:00:51;100482.09;;;9.37;100.00
30463;BME280;17256;43.618;25.336;2023-04-27T02:03:18;100260.47;;;8.06;100.00
30463;BME280;17256;43.618;25.336;2023-04-27T02:05:43;100322.88;;;8.32;100.00
30463;BME280;17256;43.618;25.336;2023-04-27T02:08:09;100304.09;;;8.29;100.00
30463;BME280;17256;43.618;25.336;2023-04-27T02:10:35;100523.44;;;9.57;100.00
30463;BME280;17256;43.618;25.336;2023-04-27T02:13:01;100337.47;;;8.54;100.00
30463;BME280;17256;43.618;25.336;2023-04-27T02:15:27;100266.53;;;8.01;100.00
30463;BME280;17256;43.618;25.336;2023-04-27T02:17:53;100224.31;;;7.75;100.00
30463;BME280;17256;43.618;25.336;2023-04-27T02:20:18;100526.72;;;9.46;100.00
30463;BME280;17256;43.618;25.336;2023-04-27T02:22:44;100385.25;;;8.51;100.00
30463;BME280;17256;43.618;25.336;2023-04-27T02:25:10;100357.59;;;8.31;100.00
30463;BME280;17256;43.618;25.336;2023-04-27T02:27:37;100334.59;;;8.26;100.00
30463;BME280;17256;43.618;25.336;2023-04-27T02:30:07;100345.44;;;8.19;100.00
30463;BME280;17256;43.618;25.336;2023-04-27T02:32:33;100237.25;;;7.51;100.00
30463;BME280;17256;43.618;25.336;2023-04-27T02:35:00;100335.53;;;8.18;100.00
30463;BME280;17256;43.618;25.336;2023-04-27T02:37:27;100272.94;;;7.79;100.00
30463;BME280;17256;43.618;25.336;2023-04-27T02:39:54;100532.09;;;9.39;100.00
30463;BME280;17256;43.618;25.336;2023-04-27T02:42:19;100339.13;;;8.19;100.00
30463;BME280;17256;43.618;25.336;2023-04-27T02:44:45;100303.66;;;8.11;100.00
30463;BME280;17256;43.618;25.336;2023-04-27T02:47:11;100260.97;;;7.80;100.00
30463;BME280;17256;43.618;25.336;2023-04-27T02:49:37;100450.38;;;8.92;100.00
30463;BME280;17256;43.618;25.336;2023-04-27T02:52:04;100314.50;;;8.04;100.00
30463;BME280;17256;43.618;25.336;2023-04-27T02:54:30;100488.59;;;9.15;100.00
30463;BME280;17256;43.618;25.336;2023-04-27T02:56:55;100285.78;;;7.79;100.00
30463;BME280;17256;43.618;25.336;2023-04-27T02:59:21;100356.66;;;8.10;100.00
30463;BME280;17256;43.618;25.336;2023-04-27T03:01:47;100338.75;;;8.07;100.00
30463;BME280;17256;43.618;25.336;2023-04-27T03:04:12;100293.22;;;7.85;100.00
30463;BME280;17256;43.618;25.336;2023-04-27T03:06:45;100305.66;;;7.87;100.00
30463;BME280;17256;43.618;25.336;2023-04-27T03:09:10;100320.56;;;7.99;100.00
30463;BME280;17256;43.618;25.336;2023-04-27T03:11:37;100327.63;;;7.94;100.00
30463;BME280;17256;43.618;25.336;2023-04-27T03:14:03;100370.72;;;8.21;100.00
30463;BME280;17256;43.618;25.336;2023-04-27T03:16:33;100379.84;;;8.14;100.00
30463;BME280;17256;43.618;25.336;2023-04-27T03:18:59;100469.22;;;8.80;100.00
30463;BME280;17256;43.618;25.336;2023-04-27T03:21:25;100460.94;;;8.59;100.00
30463;BME280;17256;43.618;25.336;2023-04-27T03:23:51;100315.28;;;7.83;100.00
30463;BME280;17256;43.618;25.336;2023-04-27T03:26:17;100475.84;;;8.71;100.00
30463;BME280;17256;43.618;25.336;2023-04-27T03:28:44;100344.78;;;8.02;100.00
30463;BME280;17256;43.618;25.336;2023-04-27T03:31:11;100370.22;;;8.18;100.00
30463;BME280;17256;43.618;25.336;2023-04-27T03:33:38;100275.03;;;7.48;100.00
30463;BME280;17256;43.618;25.336;2023-04-27T03:36:04;100392.41;;;8.23;100.00
30463;BME280;17256;43.618;25.336;2023-04-27T03:38:32;100553.22;;;9.24;100.00
30463;BME280;17256;43.618;25.336;2023-04-27T03:40:58;100555.00;;;9.17;100.00
30463;BME280;17256;43.618;25.336;2023-04-27T03:43:24;100316.38;;;7.59;100.00
30463;BME280;17256;43.618;25.336;2023-04-27T03:45:50;100364.94;;;7.87;100.00
30463;BME280;17256;43.618;25.336;2023-04-27T03:48:17;100355.34;;;7.76;100.00
30463;BME280;17256;43.618;25.336;2023-04-27T03:50:44;100306.13;;;7.47;100.00
30463;BME280;17256;43.618;25.336;2023-04-27T03:53:09;100365.81;;;7.87;100.00
30463;BME280;17256;43.618;25.336;2023-04-27T03:55:37;100564.66;;;9.13;100.00
30463;BME280;17256;43.618;25.336;2023-04-27T03:58:04;100557.94;;;9.15;100.00
30463;BME280;17256;43.618;25.336;2023-04-27T04:00:33;100495.84;;;8.57;100.00
30463;BME280;17256;43.618;25.336;2023-04-27T04:02:59;100311.09;;;7.43;100.00
30463;BME280;17256;43.618;25.336;2023-04-27T04:05:24;100403.25;;;8.01;100.00
30463;BME280;17256;43.618;25.336;2023-04-27T04:07:50;100420.31;;;8.03;100.00
30463;BME280;17256;43.618;25.336;2023-04-27T04:10:17;100349.69;;;7.78;100.00
30463;BME280;17256;43.618;25.336;2023-04-27T04:12:45;100330.25;;;7.58;100.00
30463;BME280;17256;43.618;25.336;2023-04-27T04:15:10;100314.97;;;7.49;100.00
30463;BME280;17256;43.618;25.336;2023-04-27T04:17:36;100417.22;;;8.07;100.00
30463;BME280;17256;43.618;25.336;2023-04-27T04:20:02;100371.66;;;7.84;100.00
30463;BME280;17256;43.618;25.336;2023-04-27T04:22:33;100439.38;;;8.12;100.00
30463;BME280;17256;43.618;25.336;2023-04-27T04:24:59;100572.97;;;8.90;100.00
30463;BME280;17256;43.618;25.336;2023-04-27T04:27:25;100535.22;;;8.71;100.00
30463;BME280;17256;43.618;25.336;2023-04-27T04:29:51;100390.03;;;7.90;100.00
30463;BME280;17256;43.618;25.336;2023-04-27T04:32:17;100495.69;;;8.44;100.00
30463;BME280;17256;43.618;25.336;2023-04-27T04:34:47;100298.75;;;7.32;100.00
30463;BME280;17256;43.618;25.336;2023-04-27T04:37:15;100336.19;;;7.47;100.00
30463;BME280;17256;43.618;25.336;2023-04-27T04:40:12;100611.16;;;9.21;100.00
30463;BME280;17256;43.618;25.336;2023-04-27T04:47:36;100609.72;;;9.10;100.00
30463;BME280;17256;43.618;25.336;2023-04-27T04:50:34;100602.53;;;9.09;100.00
30463;BME280;17256;43.618;25.336;2023-04-27T04:57:04;100267.88;;;6.94;100.00
30463;BME280;17256;43.618;25.336;2023-04-27T04:59:33;100473.16;;;8.19;100.00
30463;BME280;17256;43.618;25.336;2023-04-27T05:02:05;100308.38;;;7.05;100.00
30463;BME280;17256;43.618;25.336;2023-04-27T05:04:43;100514.13;;;8.27;100.00
30463;BME280;17256;43.618;25.336;2023-04-27T05:07:18;100316.56;;;7.05;100.00
30463;BME280;17256;43.618;25.336;2023-04-27T05:09:44;100494.97;;;8.27;100.00
30463;BME280;17256;43.618;25.336;2023-04-27T05:12:10;100423.16;;;7.58;100.00
30463;BME280;17256;43.618;25.336;2023-04-27T05:14:36;100420.06;;;7.61;100.00
30463;BME280;17256;43.618;25.336;2023-04-27T05:17:01;100557.31;;;8.54;100.00
30463;BME280;17256;43.618;25.336;2023-04-27T05:19:28;100341.25;;;7.12;100.00
30463;BME280;17256;43.618;25.336;2023-04-27T05:21:56;100440.66;;;7.71;100.00
30463;BME280;17256;43.618;25.336;2023-04-27T05:24:24;100317.06;;;6.86;100.00
30463;BME280;17256;43.618;25.336;2023-04-27T05:26:49;100428.91;;;7.63;100.00
30463;BME280;17256;43.618;25.336;2023-04-27T05:29:15;100404.31;;;7.48;100.00
30463;BME280;17256;43.618;25.336;2023-04-27T05:31:40;100439.44;;;7.74;100.00
30463;BME280;17256;43.618;25.336;2023-04-27T05:34:06;100401.38;;;7.50;100.00
30463;BME280;17256;43.618;25.336;2023-04-27T05:36:34;100555.88;;;8.44;100.00
30463;BME280;17256;43.618;25.336;2023-04-27T05:39:01;100436.69;;;7.74;100.00
30463;BME280;17256;43.618;25.336;2023-04-27T05:41:26;100449.63;;;7.80;100.00
30463;BME280;17256;43.618;25.336;2023-04-27T05:43:52;100552.13;;;8.45;100.00
30463;BME280;17256;43.618;25.336;2023-04-27T05:46:18;100386.72;;;7.43;100.00
30463;BME280;17256;43.618;25.336;2023-04-27T05:48:45;100462.63;;;7.93;100.00
30463;BME280;17256;43.618;25.336;2023-04-27T05:51:10;100446.97;;;7.72;100.00
30463;BME280;17256;43.618;25.336;2023-04-27T05:53:36;100400.41;;;7.43;100.00
30463;BME280;17256;43.618;25.336;2023-04-27T05:56:02;100420.66;;;7.71;100.00
30463;BME280;17256;43.618;25.336;2023-04-27T05:58:28;100411.66;;;7.48;100.00
30463;BME280;17256;43.618;25.336;2023-04-27T06:00:54;100387.09;;;7.39;100.00
30463;BME280;17256;43.618;25.336;2023-04-27T06:03:21;100409.81;;;7.40;100.00
30463;BME280;17256;43.618;25.336;2023-04-27T06:05:46;100539.72;;;8.34;100.00
30463;BME280;17256;43.618;25.336;2023-04-27T06:08:17;100430.44;;;7.65;100.00
30463;BME280;17256;43.618;25.336;2023-04-27T06:10:43;100379.72;;;7.25;100.00
30463;BME280;17256;43.618;25.336;2023-04-27T06:13:08;100517.94;;;8.18;100.00
30463;BME280;17256;43.618;25.336;2023-04-27T06:15:34;100408.78;;;7.41;100.00
30463;BME280;17256;43.618;25.336;2023-04-27T06:18:00;100362.22;;;7.34;100.00
30463;BME280;17256;43.618;25.336;2023-04-27T06:20:25;100436.78;;;7.81;100.00
30463;BME280;17256;43.618;25.336;2023-04-27T06:22:51;100402.75;;;7.83;100.00
30463;BME280;17256;43.618;25.336;2023-04-27T06:25:16;100347.47;;;7.44;100.00
30463;BME280;17256;43.618;25.336;2023-04-27T06:27:42;100465.53;;;8.29;100.00
30463;BME280;17256;43.618;25.336;2023-04-27T06:30:08;100449.66;;;8.10;100.00
30463;BME280;17256;43.618;25.336;2023-04-27T06:32:34;100669.78;;;9.41;100.00
30463;BME280;17256;43.618;25.336;2023-04-27T06:35:00;100374.06;;;7.64;100.00
30463;BME280;17256;43.618;25.336;2023-04-27T06:37:25;100460.72;;;8.31;100.00
30463;BME280;17256;43.618;25.336;2023-04-27T06:39:51;100426.75;;;8.25;100.00
30463;BME280;17256;43.618;25.336;2023-04-27T06:42:17;100526.72;;;8.95;100.00
30463;BME280;17256;43.618;25.336;2023-04-27T06:44:42;100504.72;;;8.59;100.00
30463;BME280;17256;43.618;25.336;2023-04-27T06:47:08;100427.66;;;8.18;100.00
30463;BME280;17256;43.618;25.336;2023-04-27T06:49:33;100419.41;;;8.26;100.00
30463;BME280;17256;43.618;25.336;2023-04-27T06:52:01;100520.31;;;8.73;100.00
30463;BME280;17256;43.618;25.336;2023-04-27T06:54:27;100367.22;;;7.83;100.00
30463;BME280;17256;43.618;25.336;2023-04-27T06:56:53;100433.06;;;8.26;100.00
30463;BME280;17256;43.618;25.336;2023-04-27T06:59:19;100580.91;;;9.14;100.00
30463;BME280;17256;43.618;25.336;2023-04-27T07:22:40;100598.09;;;9.74;100.00
30463;BME280;17256;43.618;25.336;2023-04-27T07:25:05;100447.03;;;8.75;100.00
30463;BME280;17256;43.618;25.336;2023-04-27T07:27:31;100498.41;;;9.24;100.00
30463;BME280;17256;43.618;25.336;2023-04-27T07:29:57;100622.06;;;10.08;100.00
30463;BME280;17256;43.618;25.336;2023-04-27T07:32:23;100445.91;;;9.20;100.00
30463;BME280;17256;43.618;25.336;2023-04-27T07:34:49;100667.03;;;10.71;100.00
30463;BME280;17256;43.618;25.336;2023-04-27T07:37:16;100628.25;;;10.31;100.00
30463;BME280;17256;43.618;25.336;2023-04-27T07:39:42;100485.00;;;9.50;100.00
30463;BME280;17256;43.618;25.336;2023-04-27T07:42:07;100457.56;;;9.29;100.00
30463;BME280;17256;43.618;25.336;2023-04-27T07:44:33;100424.69;;;9.29;100.00
30463;BME280;17256;43.618;25.336;2023-04-27T07:46:59;100594.88;;;10.56;100.00
30463;BME280;17256;43.618;25.336;2023-04-27T07:49:28;100621.94;;;10.59;100.00
30463;BME280;17256;43.618;25.336;2023-04-27T07:51:53;100446.75;;;9.42;100.00
30463;BME280;17256;43.618;25.336;2023-04-27T07:54:19;100502.66;;;9.91;100.00
30463;BME280;17256;43.618;25.336;2023-04-27T07:56:45;100464.22;;;9.63;100.00
30463;BME280;17256;43.618;25.336;2023-04-27T07:59:11;100501.09;;;9.81;100.00
30463;BME280;17256;43.618;25.336;2023-04-27T08:01:36;100534.91;;;10.10;100.00
30463;BME280;17256;43.618;25.336;2023-04-27T08:04:02;100404.59;;;9.22;100.00
30463;BME280;17256;43.618;25.336;2023-04-27T08:06:28;100605.00;;;10.27;100.00
30463;BME280;17256;43.618;25.336;2023-04-27T08:08:53;100518.34;;;9.75;100.00
30463;BME280;17256;43.618;25.336;2023-04-27T08:11:22;100503.28;;;9.43;100.00
30463;BME280;17256;43.618;25.336;2023-04-27T08:13:48;100452.50;;;9.11;100.00
30463;BME280;17256;43.618;25.336;2023-04-27T08:16:14;100528.28;;;9.55;100.00
30463;BME280;17256;43.618;25.336;2023-04-27T08:18:39;100466.97;;;9.41;100.00
30463;BME280;17256;43.618;25.336;2023-04-27T08:21:05;100636.66;;;10.51;100.00
30463;BME280;17256;43.618;25.336;2023-04-27T08:23:31;100490.53;;;9.78;100.00
30463;BME280;17256;43.618;25.336;2023-04-27T08:25:57;100475.19;;;9.63;100.00
30463;BME280;17256;43.618;25.336;2023-04-27T08:28:49;100547.53;;;10.04;100.00
30463;BME280;17256;43.618;25.336;2023-04-27T08:31:15;100301.50;;;8.57;100.00
30463;BME280;17256;43.618;25.336;2023-04-27T08:37:04;100412.22;;;9.27;100.00
30463;BME280;17256;43.618;25.336;2023-04-27T08:40:44;100545.94;;;10.38;100.00
30463;BME280;17256;43.618;25.336;2023-04-27T08:43:10;100382.47;;;9.45;100.00
30463;BME280;17256;43.618;25.336;2023-04-27T08:45:35;100473.66;;;10.24;100.00
30463;BME280;17256;43.618;25.336;2023-04-27T08:48:01;100592.50;;;11.15;100.00
30463;BME280;17256;43.618;25.336;2023-04-27T08:50:27;100448.47;;;10.48;100.00
30463;BME280;17256;43.618;25.336;2023-04-27T08:52:52;100442.06;;;10.76;100.00
30463;BME280;17256;43.618;25.336;2023-04-27T08:55:18;100471.56;;;11.08;100.00
30463;BME280;17256;43.618;25.336;2023-04-27T08:57:57;100450.91;;;11.26;100.00
30463;BME280;17256;43.618;25.336;2023-04-27T09:00:24;100488.66;;;11.71;100.00
30463;BME280;17256;43.618;25.336;2023-04-27T09:02:50;100450.72;;;11.40;100.00
30463;BME280;17256;43.618;25.336;2023-04-27T09:05:20;100625.50;;;12.37;100.00
30463;BME280;17256;43.618;25.336;2023-04-27T09:07:59;100689.34;;;13.20;100.00
30463;BME280;17256;43.618;25.336;2023-04-27T09:10:25;100594.59;;;12.68;100.00
30463;BME280;17256;43.618;25.336;2023-04-27T09:12:58;100474.28;;;12.09;100.00
30463;BME280;17256;43.618;25.336;2023-04-27T09:15:24;100464.53;;;11.67;100.00
30463;BME280;17256;43.618;25.336;2023-04-27T09:17:54;100432.97;;;11.56;100.00
30463;BME280;17256;43.618;25.336;2023-04-27T09:20:21;100623.19;;;12.60;100.00
30463;BME280;17256;43.618;25.336;2023-04-27T09:22:51;100515.81;;;12.41;100.00
30463;BME280;17256;43.618;25.336;2023-04-27T09:26:19;100680.59;;;13.36;100.00
30463;BME280;17256;43.618;25.336;2023-04-27T09:33:00;100240.69;;;11.48;100.00
30463;BME280;17256;43.618;25.336;2023-04-27T09:39:03;100249.13;;;11.53;98.82
30463;BME280;17256;43.618;25.336;2023-04-27T09:41:31;100672.31;;;14.39;97.58
30463;BME280;17256;43.618;25.336;2023-04-27T09:43:57;100431.25;;;12.99;93.15
30463;BME280;17256;43.618;25.336;2023-04-27T09:46:23;100483.97;;;13.67;99.10
30463;BME280;17256;43.618;25.336;2023-04-27T09:48:50;100528.84;;;14.44;96.90
30463;BME280;17256;43.618;25.336;2023-04-27T09:51:16;100487.16;;;13.96;84.19
30463;BME280;17256;43.618;25.336;2023-04-27T09:59:15;100665.88;;;15.45;84.17
30463;BME280;17256;43.618;25.336;2023-04-27T10:01:50;100500.97;;;14.89;84.17
30463;BME280;17256;43.618;25.336;2023-04-27T10:07:14;100384.22;;;14.07;79.23
30463;BME280;17256;43.618;25.336;2023-04-27T10:09:44;100625.06;;;16.07;79.54
30463;BME280;17256;43.618;25.336;2023-04-27T10:12:27;100663.13;;;16.71;76.86
30463;BME280;17256;43.618;25.336;2023-04-27T10:14:58;100614.19;;;15.20;79.98
30463;BME280;17256;43.618;25.336;2023-04-27T10:17:28;100496.75;;;14.36;81.90
30463;BME280;17256;43.618;25.336;2023-04-27T10:19:55;100623.53;;;15.01;80.63
30463;BME280;17256;43.618;25.336;2023-04-27T10:22:21;100497.97;;;14.22;84.16
30463;BME280;17256;43.618;25.336;2023-04-27T10:24:49;100667.91;;;15.13;82.97
30463;BME280;17256;43.618;25.336;2023-04-27T10:27:16;100671.06;;;15.34;85.56
30463;BME280;17256;43.618;25.336;2023-04-27T10:29:47;100494.97;;;14.24;82.99
30463;BME280;17256;43.618;25.336;2023-04-27T10:32:24;100592.25;;;14.82;84.11
30463;BME280;17256;43.618;25.336;2023-04-27T10:35:03;100664.84;;;15.21;83.10
30463;BME280;17256;43.618;25.336;2023-04-27T10:37:39;100485.84;;;14.23;83.73
30463;BME280;17256;43.618;25.336;2023-04-27T10:40:07;100664.41;;;14.99;86.18
30463;BME280;17256;43.618;25.336;2023-04-27T10:42:34;100548.56;;;13.91;86.75
30463;BME280;17256;43.618;25.336;2023-04-27T10:45:00;100508.84;;;13.92;89.32
30463;BME280;17256;43.618;25.336;2023-04-27T10:47:36;100476.31;;;13.63;85.88
30463;BME280;17256;43.618;25.336;2023-04-27T10:50:03;100484.81;;;13.61;85.83
30463;BME280;17256;43.618;25.336;2023-04-27T10:52:29;100434.94;;;13.31;88.87
30463;BME280;17256;43.618;25.336;2023-04-27T10:54:56;100457.78;;;13.45;91.69
30463;BME280;17256;43.618;25.336;2023-04-27T10:57:21;100456.03;;;13.50;87.61
30463;BME280;17256;43.618;25.336;2023-04-27T10:59:52;100484.56;;;14.01;86.91
30463;BME280;17256;43.618;25.336;2023-04-27T11:02:28;100424.78;;;13.88;88.88
30463;BME280;17256;43.618;25.336;2023-04-27T11:04:54;100514.03;;;14.57;82.53
30463;BME280;17256;43.618;25.336;2023-04-27T13:37:45;100525.63;;;17.22;62.38
30463;BME280;17256;43.618;25.336;2023-04-27T13:40:12;100545.56;;;16.96;62.25
30463;BME280;17256;43.618;25.336;2023-04-27T13:42:38;100564.84;;;17.02;62.02
30463;BME280;17256;43.618;25.336;2023-04-27T13:45:06;100438.13;;;16.09;59.28
30463;BME280;17256;43.618;25.336;2023-04-27T13:47:31;100415.94;;;15.86;60.89
30463;BME280;17256;43.618;25.336;2023-04-27T13:50:08;100515.97;;;16.31;61.18
30463;BME280;17256;43.618;25.336;2023-04-27T13:52:35;100502.25;;;16.48;63.24
30463;BME280;17256;43.618;25.336;2023-04-27T13:55:02;100404.66;;;15.87;64.06
30463;BME280;17256;43.618;25.336;2023-04-27T13:57:28;100571.75;;;16.88;63.39
30463;BME280;17256;43.618;25.336;2023-04-27T13:59:54;100420.31;;;15.93;62.46
30463;BME280;17256;43.618;25.336;2023-04-27T14:02:19;100342.28;;;15.31;62.17
30463;BME280;17256;43.618;25.336;2023-04-27T14:04:45;100565.81;;;16.61;61.99
30463;BME280;17256;43.618;25.336;2023-04-27T14:07:11;100478.03;;;16.31;63.52
30463;BME280;17256;43.618;25.336;2023-04-27T14:09:36;100562.69;;;17.04;59.52
30463;BME280;17256;43.618;25.336;2023-04-27T14:12:02;100558.84;;;16.82;63.48
30463;BME280;17256;43.618;25.336;2023-04-27T14:14:27;100373.44;;;15.80;61.84
30463;BME280;17256;43.618;25.336;2023-04-27T14:16:53;100423.19;;;16.10;60.70
30463;BME280;17256;43.618;25.336;2023-04-27T14:19:19;100431.53;;;16.22;60.39
30463;BME280;17256;43.618;25.336;2023-04-27T14:21:45;100433.22;;;16.23;62.38
30463;BME280;17256;43.618;25.336;2023-04-27T14:24:12;100555.41;;;17.27;63.09
30463;BME280;17256;43.618;25.336;2023-04-27T14:26:37;100590.66;;;17.26;63.29
30463;BME280;17256;43.618;25.336;2023-04-27T14:29:03;100337.19;;;15.58;63.34
30463;BME280;17256;43.618;25.336;2023-04-27T14:31:29;100485.28;;;16.44;63.22
30463;BME280;17256;43.618;25.336;2023-04-27T14:33:55;100574.78;;;16.86;63.41
30463;BME280;17256;43.618;25.336;2023-04-27T14:36:23;100605.63;;;17.02;64.07
30463;BME280;17256;43.618;25.336;2023-04-27T14:38:49;100309.19;;;15.13;63.15
30463;BME280;17256;43.618;25.336;2023-04-27T14:41:14;100436.09;;;15.93;63.03
30463;BME280;17256;43.618;25.336;2023-04-27T14:43:40;100383.38;;;15.58;63.34
30463;BME280;17256;43.618;25.336;2023-04-27T14:46:06;100589.09;;;17.07;65.19
30463;BME280;17256;43.618;25.336;2023-04-27T14:48:31;100449.38;;;16.14;63.24
30463;BME280;17256;43.618;25.336;2023-04-27T14:50:57;100473.78;;;16.06;62.51
30463;BME280;17256;43.618;25.336;2023-04-27T14:53:23;100550.34;;;16.53;62.58
30463;BME280;17256;43.618;25.336;2023-04-27T14:56:26;100627.88;;;16.60;62.59
30463;BME280;17256;43.618;25.336;2023-04-27T14:58:52;100575.13;;;16.13;63.48
30463;BME280;17256;43.618;25.336;2023-04-27T15:01:19;100626.03;;;16.42;63.25
30463;BME280;17256;43.618;25.336;2023-04-27T15:03:45;100528.81;;;15.90;62.89
30463;BME280;17256;43.618;25.336;2023-04-27T15:06:11;100410.94;;;15.23;63.46
30463;BME280;17256;43.618;25.336;2023-04-27T15:08:36;100554.13;;;15.57;63.22
30463;BME280;17256;43.618;25.336;2023-04-27T15:11:02;100630.13;;;16.10;63.91
30463;BME280;17256;43.618;25.336;2023-04-27T15:13:29;100632.81;;;15.86;65.44
30463;BME280;17256;43.618;25.336;2023-04-27T15:15:55;100437.19;;;14.47;66.53
30463;BME280;17256;43.618;25.336;2023-04-27T15:18:21;100421.22;;;14.49;68.57
30463;BME280;17256;43.618;25.336;2023-04-27T15:20:58;100587.75;;;15.24;65.28
30463;BME280;17256;43.618;25.336;2023-04-27T15:23:24;100629.66;;;15.46;67.95
30463;BME280;17256;43.618;25.336;2023-04-27T15:25:53;100602.81;;;15.28;63.35
30463;BME280;17256;43.618;25.336;2023-04-27T15:28:19;100625.28;;;15.20;62.80
30463;BME280;17256;43.618;25.336;2023-04-27T15:30:45;100640.19;;;15.19;61.83
30463;BME280;17256;43.618;25.336;2023-04-27T15:33:13;100482.06;;;14.42;63.53
30463;BME280;17256;43.618;25.336;2023-04-27T15:35:39;100659.34;;;15.39;62.10
30463;BME280;17256;43.618;25.336;2023-04-27T15:38:09;100645.41;;;15.27;63.84
30463;BME280;17256;43.618;25.336;2023-04-27T15:40:35;100609.69;;;14.83;62.55
30463;BME280;17256;43.618;25.336;2023-04-27T15:43:01;100591.47;;;14.50;64.01
30463;BME280;17256;43.618;25.336;2023-04-27T15:45:27;100497.13;;;14.22;67.10
30463;BME280;17256;43.618;25.336;2023-04-27T15:47:53;100421.28;;;13.74;70.40
30463;BME280;17256;43.618;25.336;2023-04-27T15:50:19;100438.16;;;13.84;71.09
30463;BME280;17256;43.618;25.336;2023-04-27T15:52:45;100434.09;;;13.87;72.86
30463;BME280;17256;43.618;25.336;2023-04-27T15:55:10;100335.34;;;13.08;72.90
30463;BME280;17256;43.618;25.336;2023-04-27T15:57:37;100384.53;;;13.49;69.35
30463;BME280;17256;43.618;25.336;2023-04-27T16:00:06;100216.47;;;11.96;71.46